Time;durP1;ratioP1;P1;durP2;ratioP2;P2;SDS_P1;SDS_P2;PMS_P1;PMS_P2;Temp;Humidity;BMP_temperature;BMP_pressure;BME280_temperature;BME280_humidity;BME280_pressure;Samples;Min_cycle;Max_cycle;Signal;HPM_P1;HPM_P2
2023/09/01 00:00:09;;;;;;;10.13;3.08;;;;;;;25.45;46.20;101200.69;5068428;28;20073;-75
2023/09/01 00:02:34;;;;;;;10.63;2.75;;;;;;;25.75;45.41;101194.25;5093891;28;20080;-75
2023/09/01 00:04:59;;;;;;;8.77;2.83;;;;;;;25.86;45.07;101201.53;5092373;28;20024;-76
2023/09/01 00:07:25;;;;;;;7.68;3.67;;;;;;;25.79;45.00;101209.13;5091938;28;20024;-75
2023/09/01 00:09:51;;;;;;;6.75;3.05;;;;;;;25.68;45.42;101211.69;5078229;28;20520;-75
2023/09/01 00:12:16;;;;;;;6.60;2.70;;;;;;;25.75;45.53;101212.97;5083191;28;20028;-76
2023/09/01 00:14:42;;;;;;;6.25;3.22;;;;;;;25.36;46.15;101212.00;5072480;28;20024;-75
2023/09/01 00:17:08;;;;;;;6.40;2.88;;;;;;;25.12;46.49;101218.00;5072766;28;20040;-76
2023/09/01 00:19:34;;;;;;;9.93;3.33;;;;;;;25.62;45.65;101212.94;5083398;28;20056;-75
2023/09/01 00:22:00;;;;;;;8.10;3.70;;;;;;;25.47;46.08;101204.16;5076711;28;20170;-76
2023/09/01 00:24:25;;;;;;;8.85;3.60;;;;;;;25.77;45.32;101211.03;5071886;28;20027;-76
2023/09/01 00:26:51;;;;;;;7.38;3.83;;;;;;;24.54;47.23;101215.41;5073507;28;20028;-76
2023/09/01 00:29:16;;;;;;;6.38;3.20;;;;;;;25.31;46.21;101209.63;5085878;28;20024;-75
2023/09/01 00:31:41;;;;;;;10.18;4.43;;;;;;;25.48;46.12;101213.03;5083678;28;20028;-75
2023/09/01 00:34:07;;;;;;;5.32;3.17;;;;;;;25.26;46.46;101205.53;5091654;28;20495;-75
2023/09/01 00:36:33;;;;;;;7.30;3.28;;;;;;;24.67;47.19;101209.31;5091706;28;20032;-76
2023/09/01 00:38:58;;;;;;;7.80;3.85;;;;;;;25.01;46.56;101223.19;5092895;28;20049;-75
2023/09/01 00:41:24;;;;;;;8.70;3.33;;;;;;;25.21;46.54;101228.09;5091882;28;20391;-76
2023/09/01 00:43:49;;;;;;;5.65;3.17;;;;;;;25.30;46.14;101223.09;5091093;28;20031;-75
2023/09/01 00:46:14;;;;;;;8.00;4.03;;;;;;;25.29;46.43;101216.88;5091375;28;20070;-76
2023/09/01 00:48:40;;;;;;;5.82;3.60;;;;;;;25.10;46.15;101217.25;5086305;28;20032;-75
2023/09/01 00:51:06;;;;;;;6.68;3.28;;;;;;;25.78;44.68;101204.72;5075895;28;20492;-76
2023/09/01 00:53:33;;;;;;;10.50;3.67;;;;;;;25.82;45.25;101203.56;5070881;28;20016;-76
2023/09/01 00:55:59;;;;;;;7.07;3.42;;;;;;;25.73;44.99;101199.69;5090422;28;20031;-75
2023/09/01 00:58:25;;;;;;;4.30;3.10;;;;;;;25.60;45.47;101208.66;5086888;28;20021;-76
2023/09/01 01:00:52;;;;;;;9.18;3.15;;;;;;;25.43;45.45;101218.69;5091173;28;20052;-76
2023/09/01 01:03:18;;;;;;;8.80;3.17;;;;;;;25.85;44.88;101211.38;5090038;28;20032;-76
2023/09/01 01:05:47;;;;;;;4.82;3.50;;;;;;;25.47;45.50;101204.16;5090137;28;20020;-76
2023/09/01 01:08:44;;;;;;;7.68;3.78;;;;;;;25.26;45.99;101201.03;5070676;28;20498;-75
2023/09/01 01:11:19;;;;;;;6.47;3.40;;;;;;;25.22;46.37;101200.41;5071008;28;20036;-76
2023/09/01 01:13:51;;;;;;;10.65;3.95;;;;;;;25.55;45.81;101207.16;5071502;28;20020;-76
2023/09/01 01:16:17;;;;;;;6.35;3.25;;;;;;;25.19;46.39;101211.28;5086968;28;20031;-76
2023/09/01 01:18:45;;;;;;;5.38;3.38;;;;;;;25.17;46.36;101212.34;5091461;28;20080;-76
2023/09/01 01:21:17;;;;;;;5.85;3.67;;;;;;;25.15;46.51;101215.13;5089973;28;20096;-75
2023/09/01 01:23:43;;;;;;;9.35;3.38;;;;;;;25.44;45.60;101209.69;5079795;28;20064;-75
2023/09/01 01:26:14;;;;;;;4.80;3.35;;;;;;;25.66;45.45;101214.44;5079345;28;20025;-76
2023/09/01 01:28:40;;;;;;;6.78;3.30;;;;;;;25.67;45.24;101215.31;5070558;28;20016;-75
2023/09/01 01:31:05;;;;;;;7.53;2.78;;;;;;;25.95;44.76;101208.06;5071193;28;20032;-76
2023/09/01 01:33:43;;;;;;;6.47;3.03;;;;;;;25.81;45.16;101217.91;5070521;28;20486;-75
2023/09/01 01:36:18;;;;;;;7.88;2.95;;;;;;;25.36;45.80;101220.03;5080774;28;20507;-75
2023/09/01 01:38:49;;;;;;;7.50;3.13;;;;;;;25.82;44.97;101213.41;5091095;28;20057;-75
2023/09/01 01:41:20;;;;;;;10.10;3.22;;;;;;;25.40;45.81;101216.19;5090473;28;20174;-75
2023/09/01 01:43:49;;;;;;;6.18;2.53;;;;;;;25.53;45.50;101209.06;5087143;28;20487;-76
2023/09/01 01:46:15;;;;;;;5.07;2.63;;;;;;;25.81;44.77;101212.53;5070131;28;20021;-75
2023/09/01 01:48:41;;;;;;;7.05;3.00;;;;;;;25.53;45.67;101214.44;5070696;28;20473;-75
2023/09/01 01:51:06;;;;;;;12.73;3.97;;;;;;;25.81;44.76;101217.06;5069947;28;20050;-75
2023/09/01 01:53:35;;;;;;;4.18;2.13;;;;;;;25.69;44.83;101213.38;5071884;28;20035;-75
2023/09/01 01:56:03;;;;;;;6.68;3.13;;;;;;;25.74;44.68;101228.16;5074553;28;20308;-75
2023/09/01 01:58:29;;;;;;;7.32;2.90;;;;;;;25.80;44.57;101221.56;5090067;28;20488;-74
2023/09/01 02:00:55;;;;;;;7.25;3.45;;;;;;;25.56;44.76;101216.88;5077928;28;20058;-74
2023/09/01 02:03:20;;;;;;;5.65;2.97;;;;;;;23.91;49.12;101215.78;5069802;28;20020;-74
2023/09/01 02:05:45;;;;;;;7.60;2.90;;;;;;;25.01;46.93;101212.50;5086701;28;20036;-74
2023/09/01 02:08:11;;;;;;;12.48;3.17;;;;;;;24.65;47.46;101205.91;5090276;28;20105;-75
2023/09/01 02:10:36;;;;;;;5.40;3.28;;;;;;;24.35;47.90;101215.69;5083137;28;20385;-74
2023/09/01 02:13:04;;;;;;;12.95;3.83;;;;;;;24.58;48.22;101202.72;5090635;28;20024;-75
2023/09/01 02:15:30;;;;;;;6.20;3.53;;;;;;;24.95;47.06;101202.19;5087568;28;20038;-75
2023/09/01 02:17:57;;;;;;;10.63;3.92;;;;;;;24.89;47.23;101192.75;5089919;28;20028;-74
2023/09/01 02:20:23;;;;;;;7.85;4.05;;;;;;;25.00;47.22;101205.44;5089156;28;20093;-75
2023/09/01 02:22:50;;;;;;;12.13;4.05;;;;;;;24.64;47.78;101207.69;5089534;28;20494;-75
2023/09/01 02:25:16;;;;;;;7.07;3.30;;;;;;;24.68;48.07;101211.03;5080547;28;20578;-74
2023/09/01 02:27:42;;;;;;;7.47;3.50;;;;;;;24.28;48.87;101213.53;5089965;28;20038;-74
2023/09/01 02:30:09;;;;;;;5.85;3.35;;;;;;;24.93;47.76;101207.63;5090152;28;20016;-74
2023/09/01 02:32:36;;;;;;;9.45;3.15;;;;;;;24.82;47.77;101197.63;5079077;28;20063;-74
2023/09/01 02:35:05;;;;;;;5.20;3.22;;;;;;;24.86;47.87;101204.50;5082224;28;20028;-74
2023/09/01 02:37:32;;;;;;;10.70;4.00;;;;;;;24.95;47.74;101202.19;5072168;28;20962;-75
2023/09/01 02:39:57;;;;;;;7.32;3.70;;;;;;;25.15;47.10;101193.72;5089240;28;20035;-75
2023/09/01 02:42:22;;;;;;;9.90;3.53;;;;;;;24.75;48.16;101190.97;5069371;28;20021;-75
2023/09/01 02:44:48;;;;;;;7.53;3.45;;;;;;;24.79;48.04;101189.81;5069911;28;20032;-74
2023/09/01 02:47:14;;;;;;;10.20;3.60;;;;;;;24.98;47.67;101196.66;5069460;28;20356;-75
2023/09/01 02:49:39;;;;;;;9.05;4.07;;;;;;;24.54;48.37;101193.19;5083964;28;20093;-75
2023/09/01 02:52:05;;;;;;;8.50;3.58;;;;;;;24.72;47.56;101185.84;5091181;28;20032;-74
2023/09/01 02:54:31;;;;;;;9.88;3.92;;;;;;;25.10;47.02;101174.47;5087197;28;20435;-75
2023/09/01 02:56:56;;;;;;;10.05;3.83;;;;;;;24.85;47.76;101178.75;5090616;28;20024;-75
2023/09/01 02:59:21;;;;;;;7.97;4.05;;;;;;;25.05;47.38;101171.25;5073750;28;20052;-74
2023/09/01 03:01:47;;;;;;;8.07;3.38;;;;;;;24.86;47.71;101179.59;5076700;28;20103;-73
2023/09/01 03:04:12;;;;;;;10.02;3.80;;;;;;;24.57;48.43;101176.94;5089584;28;20165;-74
2023/09/01 03:06:38;;;;;;;7.60;3.63;;;;;;;25.11;47.32;101181.50;5090812;28;20031;-75
2023/09/01 03:09:04;;;;;;;7.53;4.03;;;;;;;25.23;47.26;101174.50;5081970;28;20119;-74
2023/09/01 03:11:29;;;;;;;10.68;3.80;;;;;;;25.29;46.62;101178.59;5078706;28;20036;-74
2023/09/01 03:13:55;;;;;;;9.02;4.20;;;;;;;24.88;47.24;101177.66;5089137;28;20031;-74
2023/09/01 03:16:21;;;;;;;8.02;3.95;;;;;;;24.55;48.11;101185.06;5084574;28;20025;-75
2023/09/01 03:18:47;;;;;;;10.00;4.57;;;;;;;23.64;49.72;101181.72;5071120;28;20056;-74
2023/09/01 03:21:13;;;;;;;8.25;3.78;;;;;;;24.80;47.78;101183.53;5068069;28;20162;-75
2023/09/01 03:23:39;;;;;;;8.57;3.92;;;;;;;24.41;48.74;101187.75;5084863;28;20027;-75
2023/09/01 03:26:05;;;;;;;9.90;4.28;;;;;;;24.09;49.36;101190.63;5089657;28;20373;-75
2023/09/01 03:28:31;;;;;;;6.70;4.00;;;;;;;24.51;48.83;101193.34;5083816;28;20035;-75
2023/09/01 03:30:57;;;;;;;8.65;3.90;;;;;;;24.27;49.86;101185.09;5068807;28;20024;-74
2023/09/01 03:33:22;;;;;;;7.32;3.80;;;;;;;24.21;50.20;101176.50;5088424;28;20043;-74
2023/09/01 03:35:48;;;;;;;9.02;4.07;;;;;;;24.31;50.08;101175.94;5088317;28;20032;-74
2023/09/01 03:38:13;;;;;;;6.65;4.20;;;;;;;24.41;49.20;101179.72;5088963;28;20498;-75
2023/09/01 03:40:39;;;;;;;9.10;4.50;;;;;;;24.18;50.14;101170.47;5089331;28;20468;-74
2023/09/01 03:43:07;;;;;;;7.97;4.25;;;;;;;24.27;49.68;101175.25;5088763;28;20444;-74
2023/09/01 03:45:33;;;;;;;7.72;3.97;;;;;;;24.16;50.05;101178.59;5074666;28;20036;-74
2023/09/01 03:47:58;;;;;;;8.85;4.38;;;;;;;23.75;51.41;101181.94;5068972;28;20036;-74
2023/09/01 03:50:23;;;;;;;11.90;4.10;;;;;;;24.65;49.26;101179.19;5068928;28;20033;-75
2023/09/01 03:52:49;;;;;;;10.32;4.38;;;;;;;24.10;50.76;101178.97;5069123;28;20031;-74
2023/09/01 03:55:14;;;;;;;6.68;3.67;;;;;;;24.53;49.36;101176.28;5072078;28;20537;-74
2023/09/01 03:57:40;;;;;;;8.32;4.05;;;;;;;24.14;50.62;101175.16;5073191;28;20028;-75
2023/09/01 04:00:10;;;;;;;9.38;4.03;;;;;;;23.92;50.52;101172.09;5072781;28;20133;-74
2023/09/01 04:02:36;;;;;;;12.95;4.82;;;;;;;24.63;49.18;101181.06;5079965;28;20025;-74
2023/09/01 04:05:01;;;;;;;9.55;4.32;;;;;;;23.34;51.84;101174.59;5088345;28;20039;-75
2023/09/01 04:07:27;;;;;;;11.18;3.70;;;;;;;24.20;50.03;101166.75;5093239;28;20034;-75
2023/09/01 04:09:52;;;;;;;12.43;4.47;;;;;;;24.30;50.30;101156.34;5093027;28;20441;-75
2023/09/01 04:12:18;;;;;;;5.88;3.38;;;;;;;24.53;49.43;101156.72;5082764;28;20043;-74
2023/09/01 04:14:44;;;;;;;9.10;4.22;;;;;;;24.18;50.66;101154.47;5075758;28;20020;-75
2023/09/01 04:17:09;;;;;;;6.10;3.45;;;;;;;24.06;50.70;101158.78;5073114;28;20042;-74
2023/09/01 04:19:34;;;;;;;7.65;3.83;;;;;;;24.55;49.02;101169.03;5072127;28;20028;-74
2023/09/01 04:22:00;;;;;;;11.20;3.83;;;;;;;24.54;49.21;101166.47;5074380;28;20036;-74
2023/09/01 04:24:25;;;;;;;8.05;4.07;;;;;;;23.84;50.81;101165.38;5082346;28;20128;-75
2023/09/01 04:26:51;;;;;;;13.30;3.80;;;;;;;24.05;50.50;101170.41;5073549;28;20119;-75
2023/09/01 04:29:18;;;;;;;10.60;4.30;;;;;;;23.95;50.54;101164.75;5071523;28;20469;-75
2023/09/01 04:31:43;;;;;;;7.75;3.90;;;;;;;23.96;50.76;101165.63;5072531;28;20028;-75
2023/09/01 04:34:09;;;;;;;6.45;3.90;;;;;;;24.34;50.08;101165.06;5080264;28;20040;-75
2023/09/01 04:36:36;;;;;;;7.53;3.95;;;;;;;24.62;48.68;101164.19;5080573;28;20093;-75
2023/09/01 04:39:04;;;;;;;9.85;4.22;;;;;;;24.49;49.10;101157.88;5090408;28;20032;-75
2023/09/01 04:41:30;;;;;;;6.57;3.78;;;;;;;24.26;50.06;101167.34;5072940;28;20028;-75
2023/09/01 04:43:55;;;;;;;12.18;4.20;;;;;;;24.27;49.75;101169.06;5074662;28;20106;-75
2023/09/01 04:46:21;;;;;;;7.60;4.05;;;;;;;23.91;50.17;101168.56;5088502;28;20101;-75
2023/09/01 04:48:46;;;;;;;7.68;3.78;;;;;;;24.04;50.45;101164.22;5085528;28;20107;-75
2023/09/01 04:51:11;;;;;;;7.95;3.90;;;;;;;24.39;49.50;101173.63;5090899;28;20487;-75
2023/09/01 04:53:37;;;;;;;14.93;4.50;;;;;;;24.26;49.37;101172.69;5090589;28;20024;-75
2023/09/01 04:56:02;;;;;;;7.40;3.80;;;;;;;24.68;49.21;101162.94;5092649;28;20123;-75
2023/09/01 04:58:28;;;;;;;6.70;3.38;;;;;;;24.39;49.33;101170.97;5091685;28;20386;-75
2023/09/01 05:00:54;;;;;;;9.40;3.55;;;;;;;24.31;49.96;101175.94;5085253;28;20124;-75
2023/09/01 05:03:20;;;;;;;8.50;3.97;;;;;;;24.15;50.06;101179.56;5089118;28;20032;-75
2023/09/01 05:05:49;;;;;;;7.60;4.15;;;;;;;23.68;51.19;101180.59;5091674;28;20024;-76
2023/09/01 05:08:16;;;;;;;9.80;3.65;;;;;;;23.84;50.48;101173.38;5090043;28;20016;-75
2023/09/01 05:10:41;;;;;;;8.15;3.83;;;;;;;24.15;50.74;101176.91;5091411;28;20044;-75
2023/09/01 05:13:06;;;;;;;6.30;3.55;;;;;;;24.36;49.92;101168.50;5081841;28;20076;-76
2023/09/01 05:15:32;;;;;;;9.90;3.90;;;;;;;23.95;50.63;101163.91;5089993;28;20072;-75
2023/09/01 05:17:58;;;;;;;7.45;3.33;;;;;;;24.37;49.83;101172.88;5083035;28;20059;-76
2023/09/01 05:20:23;;;;;;;7.15;4.05;;;;;;;24.27;50.26;101169.06;5070466;28;20039;-76
2023/09/01 05:22:48;;;;;;;8.82;3.92;;;;;;;24.48;49.44;101173.06;5070847;28;20039;-76
2023/09/01 05:25:14;;;;;;;8.63;4.22;;;;;;;24.53;49.10;101175.44;5071835;28;20028;-75
2023/09/01 05:27:40;;;;;;;7.60;4.13;;;;;;;24.60;48.97;101182.09;5082321;28;20043;-75
2023/09/01 05:30:06;;;;;;;7.45;3.80;;;;;;;24.32;49.59;101183.00;5089793;28;20028;-76
2023/09/01 05:32:34;;;;;;;7.05;4.15;;;;;;;24.31;49.66;101182.13;5085848;28;20503;-75
2023/09/01 05:34:59;;;;;;;9.38;3.55;;;;;;;24.01;50.39;101182.22;5070399;28;20485;-75
2023/09/01 05:37:24;;;;;;;7.55;3.67;;;;;;;24.54;49.87;101186.03;5071640;28;20089;-76
2023/09/01 05:39:50;;;;;;;7.72;3.95;;;;;;;24.54;49.33;101178.00;5070721;28;20024;-75
2023/09/01 05:42:15;;;;;;;7.38;3.22;;;;;;;24.79;48.93;101170.28;5088536;28;20050;-75
2023/09/01 05:44:41;;;;;;;7.22;3.85;;;;;;;23.93;51.10;101171.16;5092202;28;20111;-76
2023/09/01 05:47:07;;;;;;;5.97;3.10;;;;;;;25.08;48.06;101176.38;5081974;28;20396;-75
2023/09/01 05:49:33;;;;;;;6.53;3.13;;;;;;;24.76;48.85;101168.66;5091288;28;20031;-76
2023/09/01 05:52:00;;;;;;;6.60;3.45;;;;;;;24.87;48.98;101179.50;5091011;28;20555;-75
2023/09/01 05:54:26;;;;;;;9.43;4.18;;;;;;;24.93;48.62;101174.72;5089782;28;20040;-76
2023/09/01 05:56:52;;;;;;;6.38;3.95;;;;;;;24.95;48.33;101180.81;5090656;28;20035;-75
2023/09/01 05:59:18;;;;;;;10.32;3.75;;;;;;;24.32;49.85;101191.00;5086513;28;20407;-76
2023/09/01 06:01:44;;;;;;;6.00;3.42;;;;;;;23.74;51.05;101195.38;5045742;28;20028;-75
2023/09/01 06:04:10;;;;;;;8.77;3.70;;;;;;;24.39;49.62;101195.00;5036903;28;20070;-75
2023/09/01 06:06:36;;;;;;;5.80;3.30;;;;;;;24.17;50.16;101191.00;5048126;28;20117;-75
2023/09/01 06:09:05;;;;;;;12.32;3.80;;;;;;;24.43;49.81;101185.84;5066222;28;20040;-75
2023/09/01 06:11:31;;;;;;;6.78;3.30;;;;;;;24.34;49.78;101187.25;5040449;28;20102;-76
2023/09/01 06:13:57;;;;;;;8.20;4.40;;;;;;;25.09;48.32;101190.59;5040033;28;20032;-75
2023/09/01 06:16:23;;;;;;;8.15;4.13;;;;;;;24.15;50.63;101187.56;5052812;28;20032;-75
2023/09/01 06:18:49;;;;;;;10.18;3.83;;;;;;;24.69;49.17;101191.38;5053091;28;20028;-76
2023/09/01 06:21:17;;;;;;;7.55;3.55;;;;;;;24.68;49.45;101195.84;5051062;28;20034;-76
2023/09/01 06:23:44;;;;;;;8.00;4.07;;;;;;;24.68;49.31;101195.00;5037277;28;20028;-75
2023/09/01 06:26:20;;;;;;;6.35;3.50;;;;;;;24.22;50.63;101194.25;5053329;28;20119;-75
2023/09/01 06:28:47;;;;;;;8.25;4.45;;;;;;;24.50;49.80;101183.66;5053358;28;20166;-75
2023/09/01 06:31:16;;;;;;;8.75;4.20;;;;;;;24.25;49.94;101189.66;5035230;28;20504;-76
2023/09/01 06:33:43;;;;;;;7.32;4.00;;;;;;;24.92;49.14;101181.00;5050358;28;20040;-75
2023/09/01 06:36:10;;;;;;;9.63;3.47;;;;;;;25.06;48.45;101200.53;5070769;28;20036;-75
2023/09/01 06:38:36;;;;;;;10.48;3.85;;;;;;;24.54;49.21;101199.38;5052848;28;20085;-76
2023/09/01 06:41:03;;;;;;;6.35;3.88;;;;;;;24.60;49.57;101194.59;5061194;28;20060;-76
2023/09/01 06:43:31;;;;;;;8.55;3.80;;;;;;;23.88;51.58;101198.97;5051266;28;20025;-76
2023/09/01 06:45:57;;;;;;;7.15;3.67;;;;;;;24.21;51.09;101197.88;5065584;28;20514;-76
2023/09/01 06:48:23;;;;;;;6.22;3.40;;;;;;;24.66;49.40;101196.91;5062505;28;20036;-76
2023/09/01 06:50:49;;;;;;;7.72;3.38;;;;;;;23.92;51.43;101204.13;5048623;28;20396;-75
2023/09/01 06:53:14;;;;;;;8.35;3.55;;;;;;;24.46;50.23;101195.50;5047570;28;20033;-74
2023/09/01 06:55:39;;;;;;;5.07;3.13;;;;;;;24.59;50.21;101201.75;5044241;28;20186;-75
2023/09/01 06:58:05;;;;;;;6.97;3.40;;;;;;;24.72;49.73;101202.72;5046290;28;20051;-76
2023/09/01 07:00:31;;;;;;;11.65;3.85;;;;;;;24.56;49.69;101200.16;5063689;28;20441;-75
2023/09/01 07:02:57;;;;;;;10.10;3.60;;;;;;;24.61;50.22;101201.69;5070420;28;20078;-75
2023/09/01 07:05:23;;;;;;;4.90;3.53;;;;;;;24.43;50.45;101207.22;5059970;28;20070;-75
2023/09/01 07:07:50;;;;;;;7.32;3.30;;;;;;;24.89;49.17;101204.31;5041683;28;20031;-76
2023/09/01 07:10:16;;;;;;;8.75;3.67;;;;;;;24.63;50.08;101202.47;5047134;28;20605;-75
2023/09/01 07:12:41;;;;;;;8.00;3.10;;;;;;;25.36;48.14;101190.63;5049562;28;20490;-75
2023/09/01 07:15:08;;;;;;;9.55;3.45;;;;;;;25.28;48.23;101190.22;5040345;28;20028;-75
2023/09/01 07:17:33;;;;;;;5.07;3.38;;;;;;;25.14;48.73;101194.69;5051125;28;20025;-76
2023/09/01 07:19:59;;;;;;;7.63;3.25;;;;;;;25.03;49.00;101191.84;5064294;28;20025;-75
2023/09/01 07:22:24;;;;;;;5.75;3.20;;;;;;;25.27;48.43;101196.56;5045713;28;20024;-75
2023/09/01 07:24:49;;;;;;;4.50;3.17;;;;;;;25.43;48.20;101189.25;5037727;28;20035;-75
2023/09/01 07:27:15;;;;;;;7.22;3.33;;;;;;;24.95;48.53;101191.50;5031720;28;20123;-75
2023/09/01 07:29:41;;;;;;;5.60;2.95;;;;;;;24.94;49.24;101184.47;5054759;28;20142;-75
2023/09/01 07:32:06;;;;;;;5.88;3.28;;;;;;;24.54;50.02;101191.38;5043176;28;20021;-76
2023/09/01 07:34:33;;;;;;;5.55;2.83;;;;;;;25.17;48.23;101185.59;5040027;28;20090;-75
2023/09/01 07:36:58;;;;;;;6.85;3.20;;;;;;;24.87;49.10;101179.50;5069155;28;20035;-75
2023/09/01 07:39:23;;;;;;;7.05;3.40;;;;;;;25.34;48.06;101180.00;5036150;28;20025;-75
2023/09/01 07:41:49;;;;;;;12.02;4.20;;;;;;;25.59;47.63;101180.19;5041856;28;20025;-76
2023/09/01 07:44:16;;;;;;;6.05;3.45;;;;;;;25.55;47.55;101180.41;5069443;28;20091;-75
2023/09/01 07:46:44;;;;;;;6.72;2.95;;;;;;;25.05;49.17;101185.44;5053564;28;20036;-75
2023/09/01 07:49:14;;;;;;;8.20;3.33;;;;;;;25.54;47.83;101188.50;5062270;28;20046;-76
2023/09/01 07:51:40;;;;;;;6.50;3.40;;;;;;;25.72;47.73;101197.97;5055027;28;20095;-75
2023/09/01 07:54:06;;;;;;;7.10;3.10;;;;;;;25.54;47.61;101201.88;5055763;28;20043;-76
2023/09/01 07:56:32;;;;;;;7.82;3.03;;;;;;;25.53;48.01;101197.53;5049332;28;20119;-76
2023/09/01 07:58:57;;;;;;;6.10;3.30;;;;;;;25.42;48.13;101198.25;5057080;28;20054;-74
2023/09/01 08:01:23;;;;;;;8.18;3.72;;;;;;;25.32;48.32;101194.41;5055955;28;20028;-75
2023/09/01 08:03:48;;;;;;;6.55;3.10;;;;;;;25.36;48.24;101185.25;5071931;28;20027;-75
2023/09/01 08:06:14;;;;;;;5.68;3.65;;;;;;;24.88;49.33;101197.25;5047459;28;20024;-75
2023/09/01 08:08:39;;;;;;;7.07;3.78;;;;;;;24.94;49.25;101201.34;5036079;28;20032;-75
2023/09/01 08:11:04;;;;;;;7.15;3.20;;;;;;;25.38;48.63;101207.44;5035840;28;20108;-75
2023/09/01 08:13:30;;;;;;;6.88;3.50;;;;;;;25.65;47.98;101198.50;5047499;28;20032;-75
2023/09/01 08:15:55;;;;;;;6.82;3.53;;;;;;;25.18;49.14;101204.25;5055953;28;20101;-75
2023/09/01 08:18:21;;;;;;;9.65;3.78;;;;;;;25.28;48.98;101206.28;5054879;28;20444;-75
2023/09/01 08:20:46;;;;;;;6.43;3.72;;;;;;;25.56;48.36;101206.19;5060767;28;20112;-76
2023/09/01 08:23:12;;;;;;;5.70;3.47;;;;;;;25.61;48.11;101205.00;5062834;28;20032;-75
2023/09/01 08:25:38;;;;;;;10.82;4.93;;;;;;;25.69;48.13;101213.38;5055440;28;20059;-76
2023/09/01 08:28:04;;;;;;;7.15;3.75;;;;;;;26.04;47.28;101202.09;5073092;28;20060;-76
2023/09/01 08:30:30;;;;;;;6.53;3.78;;;;;;;25.21;48.76;101209.38;5050674;28;20138;-75
2023/09/01 08:32:56;;;;;;;8.63;3.65;;;;;;;25.20;49.08;101207.66;5054054;28;20044;-75
2023/09/01 08:35:21;;;;;;;13.25;4.53;;;;;;;25.55;48.63;101200.94;5045455;28;20144;-76
2023/09/01 08:37:47;;;;;;;8.02;3.95;;;;;;;25.57;48.08;101199.88;5041975;28;20055;-76
2023/09/01 08:40:12;;;;;;;7.60;4.15;;;;;;;25.39;48.71;101201.13;5068464;28;20040;-76
2023/09/01 08:42:46;;;;;;;7.20;3.45;;;;;;;25.54;48.23;101202.75;5046103;28;20031;-76
2023/09/01 08:45:14;;;;;;;7.78;3.92;;;;;;;25.79;47.78;101206.44;5056212;28;20119;-75
2023/09/01 08:47:44;;;;;;;8.07;3.70;;;;;;;25.56;48.71;101211.53;5059156;28;20433;-75
2023/09/01 08:50:09;;;;;;;6.43;4.13;;;;;;;25.80;47.82;101210.84;5044027;28;20444;-75
2023/09/01 08:52:35;;;;;;;11.85;4.65;;;;;;;25.24;49.41;101214.53;5034307;28;20029;-76
2023/09/01 08:55:01;;;;;;;6.70;4.38;;;;;;;25.67;48.28;101212.63;5035199;28;20078;-75
2023/09/01 08:57:26;;;;;;;8.05;4.28;;;;;;;25.65;48.23;101211.88;5051382;28;20107;-75
2023/09/01 08:59:53;;;;;;;9.40;4.60;;;;;;;25.22;48.74;101216.44;5059433;28;20052;-74
2023/09/01 09:02:18;;;;;;;11.75;4.20;;;;;;;25.89;47.67;101215.53;5070852;28;20412;-76
2023/09/01 09:04:45;;;;;;;7.38;3.97;;;;;;;25.53;48.14;101235.00;5091389;28;20028;-76
2023/09/01 09:07:20;;;;;;;6.80;3.80;;;;;;;25.33;49.24;101228.28;5091417;28;20097;-75
2023/09/01 09:09:59;;;;;;;10.32;4.35;;;;;;;25.21;49.44;101230.78;5089108;28;20452;-75
2023/09/01 09:12:38;;;;;;;6.40;3.67;;;;;;;25.40;49.18;101240.28;5079704;28;20047;-76
2023/09/01 09:15:05;;;;;;;6.30;4.22;;;;;;;25.04;49.74;101239.03;5093081;28;20059;-76
2023/09/01 09:17:57;;;;;;;5.97;4.28;;;;;;;25.45;48.64;101243.50;5092436;28;20028;-76
2023/09/01 09:20:36;;;;;;;8.57;4.13;;;;;;;25.95;47.86;101240.19;5087439;28;20043;-75
2023/09/01 09:23:02;;;;;;;9.10;4.40;;;;;;;26.08;47.55;101235.75;5092780;28;20109;-75
2023/09/01 09:25:32;;;;;;;8.80;4.75;;;;;;;25.97;47.75;101232.94;5083901;28;20058;-75
2023/09/01 09:28:09;;;;;;;12.15;4.68;;;;;;;25.79;47.99;101235.91;5087194;28;20032;-76
2023/09/01 09:30:35;;;;;;;7.32;3.92;;;;;;;26.02;47.98;101237.03;5076790;28;20050;-76
2023/09/01 09:33:07;;;;;;;9.85;4.53;;;;;;;24.82;50.39;101243.06;5070921;28;20036;-75
2023/09/01 09:35:34;;;;;;;8.10;4.80;;;;;;;25.99;48.29;101247.06;5069955;28;20020;-76
2023/09/01 09:38:00;;;;;;;8.98;5.10;;;;;;;26.19;47.61;101246.56;5070788;28;20492;-76
2023/09/01 09:40:26;;;;;;;10.73;4.57;;;;;;;25.97;48.52;101249.00;5070445;28;20032;-75
2023/09/01 09:42:52;;;;;;;9.63;5.00;;;;;;;26.36;47.51;101253.41;5070305;28;20094;-75
2023/09/01 09:45:32;;;;;;;14.80;6.38;;;;;;;26.47;46.99;101247.28;5071257;28;20126;-75
2023/09/01 09:48:07;;;;;;;6.07;4.35;;;;;;;26.49;47.50;101245.38;5070365;28;20432;-75
2023/09/01 09:50:34;;;;;;;9.77;5.25;;;;;;;25.30;49.87;101244.50;5071058;28;20044;-76
2023/09/01 09:53:04;;;;;;;10.13;5.35;;;;;;;25.60;49.20;101246.13;5071302;28;20021;-76
2023/09/01 09:55:44;;;;;;;7.75;5.20;;;;;;;25.39;49.85;101243.94;5070912;28;20119;-75
2023/09/01 09:58:11;;;;;;;8.25;4.93;;;;;;;25.52;49.53;101244.81;5091559;28;20060;-76
2023/09/01 10:00:39;;;;;;;11.40;5.55;;;;;;;26.27;47.77;101237.13;5090651;28;20075;-76
2023/09/01 10:03:05;;;;;;;7.25;5.05;;;;;;;26.10;48.60;101228.44;5090200;28;20040;-76
2023/09/01 10:05:34;;;;;;;9.73;5.30;;;;;;;26.34;48.26;101231.25;5090215;28;20319;-76
2023/09/01 10:08:05;;;;;;;8.70;5.10;;;;;;;26.05;48.89;101252.03;5091894;28;20099;-76
2023/09/01 10:10:33;;;;;;;9.60;5.30;;;;;;;26.68;47.06;101258.31;5088888;28;20139;-76
2023/09/01 10:13:02;;;;;;;7.28;4.90;;;;;;;26.61;47.15;101269.59;5091008;28;20032;-76
2023/09/01 10:15:30;;;;;;;8.65;5.43;;;;;;;27.33;46.15;101279.63;5090143;28;20027;-75
2023/09/01 10:17:58;;;;;;;6.65;5.05;;;;;;;26.84;46.38;101287.59;5089687;28;20024;-76
2023/09/01 10:20:24;;;;;;;8.45;5.10;;;;;;;26.71;46.69;101284.94;5091153;28;20076;-75
2023/09/01 10:22:49;;;;;;;7.80;4.45;;;;;;;26.69;47.15;101283.31;5089859;28;20024;-76
2023/09/01 10:25:16;;;;;;;10.00;4.38;;;;;;;27.04;46.08;101285.31;5087807;28;20032;-76
2023/09/01 10:28:04;;;;;;;9.27;5.05;;;;;;;27.01;46.79;101293.56;5074883;28;20039;-75
2023/09/01 10:30:34;;;;;;;13.10;5.97;;;;;;;27.04;46.55;101293.38;5069323;28;20078;-75
2023/09/01 10:33:07;;;;;;;9.43;4.85;;;;;;;27.04;46.57;101293.38;5070181;28;20028;-75
2023/09/01 10:35:47;;;;;;;8.45;5.18;;;;;;;27.06;46.99;101291.41;5069405;28;20130;-75
2023/09/01 10:38:17;;;;;;;10.15;5.68;;;;;;;27.05;46.28;101301.28;5069322;28;20484;-75
2023/09/01 10:40:54;;;;;;;8.15;4.72;;;;;;;27.42;45.81;101295.06;5069766;28;20188;-75
2023/09/01 10:43:44;;;;;;;10.43;5.13;;;;;;;26.55;47.28;101303.03;5069644;28;20024;-75
2023/09/01 10:46:14;;;;;;;9.80;5.32;;;;;;;27.03;46.68;101307.72;5063085;28;20040;-75
2023/09/01 10:49:00;;;;;;;14.23;5.13;;;;;;;27.62;45.63;101303.47;5069453;28;20024;-75
2023/09/01 10:51:27;;;;;;;12.45;6.07;;;;;;;27.00;46.84;101299.91;5068439;28;20029;-75
2023/09/01 10:53:55;;;;;;;14.48;6.20;;;;;;;26.72;47.46;101289.34;5069800;28;20029;-75
2023/09/01 10:56:20;;;;;;;7.15;4.95;;;;;;;26.91;47.38;101296.06;5086118;28;20050;-75
2023/09/01 10:58:47;;;;;;;9.35;5.68;;;;;;;27.11;47.18;101300.00;5068797;28;20063;-75
2023/09/01 11:01:29;;;;;;;9.15;5.65;;;;;;;27.01;47.26;101304.28;5069663;28;20527;-75
2023/09/01 11:03:56;;;;;;;9.13;5.63;;;;;;;27.28;46.29;101301.41;5072957;28;20028;-75
2023/09/01 11:06:22;;;;;;;10.25;5.47;;;;;;;27.86;45.60;101303.44;5072504;28;20028;-75
2023/09/01 11:09:00;;;;;;;8.82;5.15;;;;;;;27.36;46.37;101292.84;5073743;28;20035;-75
2023/09/01 11:11:27;;;;;;;10.43;5.03;;;;;;;27.76;45.65;101303.28;5074440;28;20039;-75
2023/09/01 11:14:02;;;;;;;8.65;4.72;;;;;;;28.32;44.64;101285.66;5074024;28;20507;-75
2023/09/01 11:16:27;;;;;;;9.27;5.35;;;;;;;27.93;45.27;101296.63;5074155;28;20052;-75
2023/09/01 11:19:00;;;;;;;8.30;4.40;;;;;;;28.15;45.89;101278.88;5073225;28;20090;-75
2023/09/01 11:21:26;;;;;;;6.72;4.35;;;;;;;29.21;43.23;101291.97;5074130;28;20036;-75
2023/09/01 11:24:00;;;;;;;8.73;3.20;;;;;;;29.13;43.30;101301.63;5073487;28;20031;-75